createdAt,value
2023-05-08T00:00:42.318Z,97774.23
2023-05-08T00:03:17.606Z,97775.71
2023-05-08T00:05:46.033Z,97780.31
2023-05-08T00:08:14.087Z,97785.33
2023-05-08T00:10:42.068Z,97787.88
2023-05-08T00:13:10.123Z,97783.95
2023-05-08T00:15:38.131Z,97780.13
2023-05-08T00:18:06.220Z,97775.45
2023-05-08T00:20:34.786Z,97769.84
2023-05-08T00:23:02.909Z,97763.47
2023-05-08T00:25:32.178Z,97757.46
2023-05-08T00:28:01.180Z,97753.45
2023-05-08T00:30:29.273Z,97753.45
2023-05-08T00:32:57.185Z,97756.31
2023-05-08T00:35:25.209Z,97756.71
2023-05-08T00:37:53.233Z,97761.20
2023-05-08T00:40:21.330Z,97769.55
2023-05-08T00:42:49.475Z,97768.27
2023-05-08T00:45:17.655Z,97770.96
2023-05-08T00:47:45.679Z,97774.80
2023-05-08T00:50:14.191Z,97780.60
2023-05-08T00:52:43.702Z,97780.80
2023-05-08T00:55:11.897Z,97781.84
2023-05-08T00:57:39.918Z,97784.04
2023-05-08T01:00:09.911Z,97784.23
2023-05-08T01:02:40.012Z,97789.67
2023-05-08T01:05:08.544Z,97792.33
2023-05-08T01:07:36.459Z,97791.16
2023-05-08T01:10:06.493Z,97789.52
2023-05-08T01:13:00.444Z,97790.91
2023-05-08T01:15:32.504Z,97790.40
2023-05-08T01:18:21.766Z,97788.00
2023-05-08T01:21:01.401Z,97781.96
2023-05-08T01:23:44.075Z,97780.56
2023-05-08T01:26:19.336Z,97776.40
2023-05-08T01:29:14.452Z,97777.71
2023-05-08T01:31:53.986Z,97774.14
2023-05-08T01:34:26.830Z,97776.17
2023-05-08T01:37:03.592Z,97775.42
2023-05-08T01:39:44.685Z,97777.46
2023-05-08T01:42:28.747Z,97778.80
2023-05-08T01:45:02.086Z,97775.46
2023-05-08T01:47:33.624Z,97774.73
2023-05-08T01:50:11.160Z,97768.61
2023-05-08T01:52:47.457Z,97766.54
2023-05-08T01:55:26.772Z,97767.57
2023-05-08T01:57:59.760Z,97766.21
2023-05-08T02:00:32.053Z,97765.31
2023-05-08T02:03:01.170Z,97764.61
2023-05-08T02:05:30.223Z,97762.20
2023-05-08T02:07:59.395Z,97759.81
2023-05-08T02:10:29.960Z,97762.80
2023-05-08T02:13:00.043Z,97762.97
2023-05-08T02:15:31.977Z,97763.55
2023-05-08T02:18:00.737Z,97766.33
2023-05-08T02:20:30.390Z,97765.36
2023-05-08T02:22:58.498Z,97766.05
2023-05-08T02:25:31.324Z,97767.21
2023-05-08T02:28:00.055Z,97771.71
2023-05-08T02:30:29.336Z,97769.75
2023-05-08T02:33:00.625Z,97770.66
2023-05-08T02:35:31.338Z,97765.77
2023-05-08T02:38:01.876Z,97765.93
2023-05-08T02:40:31.843Z,97768.01
2023-05-08T02:42:59.921Z,97772.23
2023-05-08T02:45:37.213Z,97775.57
2023-05-08T02:48:36.300Z,97775.04
2023-05-08T02:51:33.710Z,97775.70
2023-05-08T02:54:19.489Z,97774.39
2023-05-08T02:56:52.352Z,97773.86
2023-05-08T02:59:29.220Z,97769.93
2023-05-08T03:02:10.984Z,97766.23
2023-05-08T03:04:55.569Z,97766.72
2023-05-08T03:07:28.528Z,97763.06
2023-05-08T03:10:04.039Z,97765.11
2023-05-08T03:12:36.486Z,97764.85
2023-05-08T03:15:10.285Z,97766.46
2023-05-08T03:17:43.121Z,97767.41
2023-05-08T03:20:16.065Z,97768.44
2023-05-08T03:22:47.002Z,97772.91
2023-05-08T03:25:19.870Z,97775.37
2023-05-08T03:27:49.327Z,97777.34
2023-05-08T03:30:19.273Z,97779.17
2023-05-08T03:32:56.846Z,97778.38
2023-05-08T03:35:25.952Z,97779.95
2023-05-08T03:37:54.276Z,97779.30
2023-05-08T03:40:22.723Z,97784.08
2023-05-08T03:42:51.115Z,97785.94
2023-05-08T03:45:20.030Z,97785.62
2023-05-08T03:47:49.441Z,97786.77
2023-05-08T03:50:17.763Z,97783.83
2023-05-08T03:52:46.392Z,97784.91
2023-05-08T03:55:14.571Z,97786.34
2023-05-08T03:58:05.764Z,97784.95
2023-05-08T04:01:12.496Z,97782.44
2023-05-08T04:04:12.007Z,97782.30
2023-05-08T04:07:14.230Z,97785.98
2023-05-08T04:10:04.891Z,97789.77
2023-05-08T04:12:53.282Z,97791.20
2023-05-08T04:15:29.102Z,97792.05
2023-05-08T04:18:09.474Z,97793.99
2023-05-08T04:20:41.598Z,97795.79
2023-05-08T04:23:14.342Z,97794.20
2023-05-08T04:25:44.531Z,97793.88
2023-05-08T04:28:13.085Z,97792.65
2023-05-08T04:30:42.737Z,97792.59
2023-05-08T04:33:11.556Z,97790.61
2023-05-08T04:35:39.650Z,97786.16
2023-05-08T04:38:08.305Z,97786.92
2023-05-08T04:40:36.590Z,97795.12
2023-05-08T04:43:04.765Z,97797.61
2023-05-08T04:45:33.372Z,97808.01
2023-05-08T04:48:01.577Z,97812.77
2023-05-08T04:50:30.100Z,97814.97
2023-05-08T04:52:58.498Z,97818.41
2023-05-08T04:55:26.500Z,97820.72
2023-05-08T04:57:55.049Z,97818.88
2023-05-08T05:00:23.784Z,97824.48
2023-05-08T05:02:52.278Z,97824.61
2023-05-08T05:05:20.246Z,97823.61
2023-05-08T05:07:48.437Z,97821.89
2023-05-08T05:10:17.702Z,97821.17
2023-05-08T05:12:45.829Z,97821.39
2023-05-08T05:15:14.184Z,97820.14
2023-05-08T05:17:42.724Z,97817.33
2023-05-08T05:20:11.735Z,97818.06
2023-05-08T05:22:39.808Z,97820.34
2023-05-08T05:25:10.070Z,97819.31
2023-05-08T05:27:39.394Z,97823.69
2023-05-08T05:30:08.456Z,97828.33
2023-05-08T05:32:38.061Z,97827.75
2023-05-08T05:35:07.923Z,97826.05
2023-05-08T05:37:36.000Z,97828.18
2023-05-08T05:40:04.602Z,97821.83
2023-05-08T05:42:33.133Z,97816.69
2023-05-08T05:45:02.225Z,97817.86
2023-05-08T05:47:30.779Z,97818.98
2023-05-08T05:49:59.253Z,97821.02
2023-05-08T05:52:27.406Z,97819.51
2023-05-08T05:54:55.433Z,97814.80
2023-05-08T05:57:23.713Z,97812.23
2023-05-08T05:59:52.711Z,97813.58
2023-05-08T06:02:22.404Z,97812.00
2023-05-08T06:04:52.361Z,97810.69
2023-05-08T06:07:21.425Z,97810.48
2023-05-08T06:09:51.321Z,97806.86
2023-05-08T06:12:20.760Z,97805.77
2023-05-08T06:14:49.036Z,97807.36
2023-05-08T06:17:17.753Z,97810.82
2023-05-08T06:19:50.640Z,97811.14
2023-05-08T06:22:19.296Z,97812.76
2023-05-08T06:24:47.552Z,97808.79
2023-05-08T06:27:15.993Z,97811.27
2023-05-08T06:29:44.372Z,97813.71
2023-05-08T06:32:12.452Z,97812.52
2023-05-08T06:34:40.648Z,97818.23
2023-05-08T06:37:09.204Z,97817.52
2023-05-08T06:39:37.407Z,97815.86
2023-05-08T06:42:08.175Z,97819.36
2023-05-08T06:44:40.913Z,97819.93
2023-05-08T06:47:09.139Z,97819.36
2023-05-08T06:49:37.904Z,97820.83
2023-05-08T06:52:06.509Z,97823.73
2023-05-08T06:54:34.750Z,97824.78
2023-05-08T06:57:02.964Z,97829.34
2023-05-08T06:59:31.075Z,97826.73
2023-05-08T07:01:59.658Z,97827.80
2023-05-08T07:04:28.714Z,97830.63
2023-05-08T07:06:58.225Z,97831.27
2023-05-08T07:09:26.488Z,97831.09
2023-05-08T07:11:55.003Z,97829.63
2023-05-08T07:14:23.277Z,97830.05
2023-05-08T07:16:51.476Z,97829.01
2023-05-08T07:19:22.391Z,97826.29
2023-05-08T07:21:51.546Z,97825.33
2023-05-08T07:24:19.790Z,97832.77
2023-05-08T07:26:48.879Z,97831.34
2023-05-08T07:29:17.333Z,97833.37
2023-05-08T07:31:47.104Z,97836.73
2023-05-08T07:34:15.511Z,97837.46
2023-05-08T07:36:44.192Z,97844.75
2023-05-08T07:39:12.643Z,97843.13
2023-05-08T07:41:41.308Z,97842.02
2023-05-08T07:44:09.783Z,97844.41
2023-05-08T07:46:38.314Z,97843.79
2023-05-08T07:49:07.306Z,97845.81
2023-05-08T07:51:35.406Z,97850.40
2023-05-08T07:54:03.675Z,97854.13
2023-05-08T07:56:32.043Z,97861.46
2023-05-08T07:59:00.529Z,97863.80
2023-05-08T08:01:29.042Z,97862.48
2023-05-08T08:03:57.848Z,97863.79
2023-05-08T08:06:26.248Z,97869.60
2023-05-08T08:08:54.389Z,97869.31
2023-05-08T08:11:22.907Z,97862.95
2023-05-08T08:13:51.114Z,97860.15
2023-05-08T08:16:19.340Z,97859.23
2023-05-08T08:18:47.928Z,97863.07
2023-05-08T08:21:16.982Z,97860.14
2023-05-08T08:23:45.502Z,97863.02
2023-05-08T08:26:13.930Z,97865.87
2023-05-08T08:28:42.384Z,97866.90
2023-05-08T08:31:10.997Z,97868.11
2023-05-08T08:33:39.537Z,97875.56
2023-05-08T08:36:14.305Z,97871.65
2023-05-08T08:38:42.731Z,97875.18
2023-05-08T08:41:15.942Z,97879.20
2023-05-08T08:43:44.633Z,97878.16
2023-05-08T08:46:18.346Z,97880.86
2023-05-08T08:48:47.620Z,97883.80
2023-05-08T08:51:26.560Z,97882.59
2023-05-08T08:54:13.300Z,97884.27
2023-05-08T08:56:44.899Z,97881.50
2023-05-08T08:59:13.813Z,97877.80
2023-05-08T09:01:45.759Z,97878.02
2023-05-08T09:04:14.461Z,97878.20
2023-05-08T09:06:43.180Z,97873.29
2023-05-08T09:09:12.699Z,97873.67
2023-05-08T09:11:44.044Z,97873.44
2023-05-08T09:14:12.942Z,97874.05
2023-05-08T09:16:41.433Z,97870.83
2023-05-08T09:19:13.579Z,97875.02
2023-05-08T09:21:42.278Z,97873.14
2023-05-08T09:24:10.580Z,97874.64
2023-05-08T09:26:41.893Z,97874.58
2023-05-08T09:29:22.407Z,97872.13
2023-05-08T09:31:53.221Z,97869.27
2023-05-08T09:34:33.447Z,97866.75
2023-05-08T09:37:04.938Z,97865.89
2023-05-08T09:39:33.428Z,97860.02
2023-05-08T09:42:05.095Z,97858.16
2023-05-08T09:44:52.157Z,97859.26
2023-05-08T09:47:23.188Z,97855.36
2023-05-08T09:50:11.074Z,97855.57
2023-05-08T09:52:46.246Z,97851.98
2023-05-08T09:55:14.774Z,97855.41
2023-05-08T09:57:59.752Z,97854.73
2023-05-08T10:00:30.198Z,97855.77
2023-05-08T10:03:01.274Z,97851.83
2023-05-08T10:05:32.173Z,97850.20
2023-05-08T10:08:22.478Z,97846.84
2023-05-08T10:10:51.383Z,97845.73
2023-05-08T10:13:19.794Z,97848.77
2023-05-08T10:15:54.865Z,97849.32
2023-05-08T10:18:29.016Z,97849.80
2023-05-08T10:21:01.154Z,97846.97
2023-05-08T10:23:30.156Z,97841.27
2023-05-08T10:26:05.427Z,97840.79
2023-05-08T10:28:40.007Z,97838.02
2023-05-08T10:31:11.964Z,97839.52
2023-05-08T10:33:42.030Z,97834.55
2023-05-08T10:36:10.642Z,97832.37
2023-05-08T10:38:41.803Z,97834.31
2023-05-08T10:41:11.624Z,97832.73
2023-05-08T10:43:43.745Z,97835.86
2023-05-08T10:46:36.888Z,97842.17
2023-05-08T10:49:19.309Z,97841.89
2023-05-08T10:52:01.595Z,97846.48
2023-05-08T10:54:52.031Z,97845.65
2023-05-08T10:57:20.669Z,97844.50
2023-05-08T10:59:49.277Z,97844.92
2023-05-08T11:02:28.914Z,97844.16
2023-05-08T11:05:17.989Z,97844.55
2023-05-08T11:07:57.291Z,97842.98
2023-05-08T11:10:32.472Z,97845.55
2023-05-08T11:13:01.466Z,97841.64
2023-05-08T11:15:38.079Z,97844.52
2023-05-08T11:18:09.125Z,97844.79
2023-05-08T11:20:42.776Z,97851.66
2023-05-08T11:23:30.872Z,97848.25
2023-05-08T11:26:04.067Z,97843.38
2023-05-08T11:28:39.619Z,97842.60
2023-05-08T11:31:09.191Z,97847.66
2023-05-08T11:33:38.476Z,97852.09
2023-05-08T11:36:20.627Z,97867.20
2023-05-08T11:39:16.189Z,97874.94
2023-05-08T11:41:45.439Z,97877.97
2023-05-08T11:44:20.674Z,97879.67
2023-05-08T11:46:49.711Z,97879.96
2023-05-08T11:49:24.616Z,97878.77
2023-05-08T11:51:56.093Z,97883.55
2023-05-08T11:54:25.677Z,97886.64
2023-05-08T11:56:57.811Z,97887.45
2023-05-08T11:59:26.023Z,97888.47
2023-05-08T12:02:07.010Z,97888.88
2023-05-08T12:04:44.740Z,97885.65
2023-05-08T12:07:13.777Z,97888.77
2023-05-08T12:09:42.628Z,97888.45
2023-05-08T12:12:11.786Z,97885.83
2023-05-08T12:14:40.931Z,97887.85
2023-05-08T12:17:12.922Z,97886.27
2023-05-08T12:20:19.039Z,97887.52
2023-05-08T12:22:52.820Z,97885.98
2023-05-08T12:25:21.817Z,97883.65
2023-05-08T12:27:50.738Z,97879.00
2023-05-08T12:30:19.732Z,97880.77
2023-05-08T12:32:48.946Z,97879.99
2023-05-08T12:35:18.241Z,97878.50
2023-05-08T12:37:47.848Z,97883.64
2023-05-08T12:40:31.805Z,97882.36
2023-05-08T12:43:05.291Z,97880.21
2023-05-08T12:45:37.274Z,97878.70
2023-05-08T12:48:08.222Z,97878.31
2023-05-08T12:50:39.293Z,97879.05
2023-05-08T12:53:10.055Z,97878.34
2023-05-08T12:55:40.846Z,97885.14
2023-05-08T12:58:15.207Z,97882.32
2023-05-08T13:00:49.920Z,97883.04
2023-05-08T13:03:26.956Z,97888.52
2023-05-08T13:05:57.524Z,97888.73
2023-05-08T13:08:33.359Z,97892.08
2023-05-08T13:11:03.375Z,97898.17
2023-05-08T13:13:34.101Z,97900.66
2023-05-08T13:16:05.214Z,97894.13
2023-05-08T13:18:36.875Z,97895.38
2023-05-08T13:21:05.983Z,97901.09
2023-05-08T13:23:34.520Z,97900.45
2023-05-08T13:26:03.125Z,97905.14
2023-05-08T13:28:31.833Z,97903.43
2023-05-08T13:31:01.244Z,97906.67
2023-05-08T13:33:30.864Z,97907.77
2023-05-08T13:35:59.385Z,97911.59
2023-05-08T13:38:28.053Z,97913.20
2023-05-08T13:40:56.392Z,97915.81
2023-05-08T13:43:24.702Z,97918.09
2023-05-08T13:45:54.196Z,97911.73
2023-05-08T13:48:22.879Z,97912.25
2023-05-08T13:50:51.493Z,97916.30
2023-05-08T13:53:19.802Z,97922.53
2023-05-08T13:55:48.298Z,97929.28
2023-05-08T13:58:16.441Z,97924.27
2023-05-08T14:00:45.851Z,97927.23
2023-05-08T14:03:14.233Z,97931.06
2023-05-08T14:05:43.038Z,97930.50
2023-05-08T14:08:11.664Z,97937.63
2023-05-08T14:10:41.016Z,97939.02
2023-05-08T14:13:09.503Z,97940.34
2023-05-08T14:15:38.591Z,97941.78
2023-05-08T14:18:07.126Z,97941.95
2023-05-08T14:20:35.619Z,97945.22
2023-05-08T14:23:04.055Z,97944.39
2023-05-08T14:25:32.477Z,97950.16
2023-05-08T14:28:00.738Z,97948.89
2023-05-08T14:30:29.223Z,97952.66
2023-05-08T14:32:57.991Z,97954.01
2023-05-08T14:35:26.358Z,97948.46
2023-05-08T14:37:54.758Z,97949.39
2023-05-08T14:40:24.618Z,97956.23
2023-05-08T14:42:53.060Z,97957.52
2023-05-08T14:45:21.554Z,97959.48
2023-05-08T14:47:49.999Z,97962.90
2023-05-08T14:50:18.431Z,97969.93
2023-05-08T14:52:47.018Z,97970.34
2023-05-08T14:55:21.237Z,97975.56
2023-05-08T14:57:50.472Z,97980.39
2023-05-08T15:00:19.124Z,97983.81
2023-05-08T15:02:47.866Z,97977.61
2023-05-08T15:08:05.503Z,97991.19
2023-05-08T15:10:33.684Z,97992.09
2023-05-08T15:13:02.337Z,97993.48
2023-05-08T15:15:31.250Z,97994.95
2023-05-08T15:17:59.773Z,98000.86
2023-05-08T15:20:28.411Z,97999.96
2023-05-08T15:22:56.630Z,98003.52
2023-05-08T15:25:26.212Z,98009.16
2023-05-08T15:27:54.604Z,98010.75
2023-05-08T15:30:23.091Z,98014.96
2023-05-08T15:32:51.706Z,98013.83
2023-05-08T15:35:21.109Z,98016.44
2023-05-08T15:37:49.928Z,98020.25
2023-05-08T15:40:18.618Z,98021.36
2023-05-08T15:42:47.154Z,98019.70
2023-05-08T15:45:16.595Z,98017.46
2023-05-08T15:47:45.063Z,98019.23
2023-05-08T15:50:14.710Z,98025.02
2023-05-08T15:52:43.383Z,98023.66
2023-05-08T15:55:12.419Z,98025.52
2023-05-08T15:57:40.964Z,98026.54
2023-05-08T16:00:09.939Z,98027.35
2023-05-08T16:02:38.335Z,98025.92
2023-05-08T16:05:07.291Z,98024.99
2023-05-08T16:07:35.487Z,98027.30
2023-05-08T16:10:05.482Z,98032.12
2023-05-08T16:12:35.730Z,98040.34
2023-05-08T16:15:05.293Z,98043.80
2023-05-08T16:17:34.952Z,98042.39
2023-05-08T16:20:04.725Z,98049.23
2023-05-08T16:22:33.792Z,98056.23
2023-05-08T16:25:03.838Z,98055.83
2023-05-08T16:27:32.307Z,98055.56
2023-05-08T16:30:00.650Z,98062.52
2023-05-08T16:32:29.407Z,98064.79
2023-05-08T16:34:57.846Z,98063.87
2023-05-08T16:37:26.110Z,98065.04
2023-05-08T16:39:54.533Z,98062.32
2023-05-08T16:42:23.017Z,98062.94
2023-05-08T16:44:51.503Z,98066.73
2023-05-08T16:47:20.093Z,98067.88
2023-05-08T16:49:48.280Z,98069.06
2023-05-08T16:52:16.537Z,98071.62
2023-05-08T16:54:44.588Z,98073.85
2023-05-08T16:57:12.749Z,98073.45
2023-05-08T16:59:41.755Z,98074.31
2023-05-08T17:02:12.360Z,98078.14
2023-05-08T17:04:41.076Z,98084.98
2023-05-08T17:07:09.271Z,98091.09
2023-05-08T17:09:37.347Z,98097.55
2023-05-08T17:12:05.735Z,98094.90
2023-05-08T17:14:34.040Z,98097.84
2023-05-08T17:17:02.248Z,98102.43
2023-05-08T17:19:30.519Z,98101.71
2023-05-08T17:21:59.829Z,98106.92
2023-05-08T17:24:31.199Z,98119.96
2023-05-08T17:26:59.589Z,98125.36
2023-05-08T17:29:28.200Z,98129.55
2023-05-08T17:31:56.379Z,98136.16
2023-05-08T17:34:24.745Z,98140.81
2023-05-08T17:36:54.502Z,98142.69
2023-05-08T17:39:23.311Z,98149.27
2023-05-08T17:41:52.205Z,98154.77
2023-05-08T17:44:20.489Z,98153.64
2023-05-08T17:46:48.485Z,98158.44
2023-05-08T17:49:19.437Z,98167.60
2023-05-08T17:51:47.662Z,98175.52
2023-05-08T17:54:16.198Z,98178.21
2023-05-08T17:56:45.151Z,98179.16
2023-05-08T17:59:13.133Z,98183.41
2023-05-08T18:01:41.487Z,98189.42
2023-05-08T18:04:09.643Z,98191.92
2023-05-08T18:06:37.654Z,98194.09
2023-05-08T18:09:05.817Z,98200.09
2023-05-08T18:11:34.213Z,98204.52
2023-05-08T18:14:02.523Z,98206.70
2023-05-08T18:16:30.937Z,98210.77
2023-05-08T18:18:59.326Z,98216.41
2023-05-08T18:21:28.896Z,98217.50
2023-05-08T18:23:57.224Z,98217.39
2023-05-08T18:26:25.697Z,98225.48
2023-05-08T18:28:53.919Z,98234.79
2023-05-08T18:31:22.102Z,98238.67
2023-05-08T18:33:50.084Z,98245.89
2023-05-08T18:36:18.026Z,98249.77
2023-05-08T18:38:46.147Z,98253.29
2023-05-08T18:41:14.402Z,98256.47
2023-05-08T18:43:42.525Z,98261.71
2023-05-08T18:46:15.030Z,98262.23
2023-05-08T18:48:43.967Z,98263.30
2023-05-08T18:51:13.070Z,98267.67
2023-05-08T18:53:41.790Z,98267.01
2023-05-08T18:56:11.716Z,98269.81
2023-05-08T18:58:39.795Z,98272.28
2023-05-08T19:01:08.035Z,98274.23
2023-05-08T19:03:36.230Z,98274.61
2023-05-08T19:06:04.708Z,98273.22
2023-05-08T19:08:32.647Z,98279.17
2023-05-08T19:11:00.722Z,98282.34
2023-05-08T19:13:28.824Z,98283.92
2023-05-08T19:15:56.968Z,98286.06
2023-05-08T19:18:24.990Z,98286.41
2023-05-08T19:20:53.170Z,98285.39
2023-05-08T19:23:21.424Z,98288.55
2023-05-08T19:25:49.999Z,98297.80
2023-05-08T19:28:17.954Z,98300.95
2023-05-08T19:30:45.879Z,98299.88
2023-05-08T19:33:14.051Z,98299.19
2023-05-08T19:35:43.361Z,98301.11
2023-05-08T19:38:12.575Z,98300.25
2023-05-08T19:40:55.544Z,98304.11
2023-05-08T19:43:27.986Z,98305.52
2023-05-08T19:45:56.295Z,98306.23
2023-05-08T19:48:24.752Z,98309.20
2023-05-08T19:50:55.108Z,98313.04
2023-05-08T19:53:23.934Z,98314.10
2023-05-08T19:55:51.981Z,98313.56
2023-05-08T19:58:20.000Z,98309.57
2023-05-08T20:03:19.859Z,98309.56
2023-05-08T20:05:48.047Z,98306.44
2023-05-08T20:08:16.223Z,98311.83
2023-05-08T20:10:44.721Z,98316.88
2023-05-08T20:13:12.792Z,98315.84
2023-05-08T20:15:41.098Z,98315.83
2023-05-08T20:18:09.564Z,98318.60
2023-05-08T20:20:37.762Z,98316.52
2023-05-08T20:23:05.841Z,98320.00
2023-05-08T20:25:34.060Z,98318.44
2023-05-08T20:28:02.164Z,98315.13
2023-05-08T20:30:30.228Z,98314.77
2023-05-08T20:33:05.136Z,98319.64
2023-05-08T20:35:34.050Z,98317.73
2023-05-08T20:38:02.127Z,98323.80
2023-05-08T20:40:30.109Z,98327.79
2023-05-08T20:42:58.155Z,98327.06
2023-05-08T20:45:26.313Z,98327.40
2023-05-08T20:47:54.253Z,98329.82
2023-05-08T20:50:22.468Z,98333.78
2023-05-08T20:52:50.683Z,98340.38
2023-05-08T20:55:18.775Z,98340.88
2023-05-08T20:57:46.883Z,98342.25
2023-05-08T21:00:15.388Z,98340.50
2023-05-08T21:02:44.481Z,98340.65
2023-05-08T21:05:12.759Z,98341.16
2023-05-08T21:07:42.631Z,98344.80
2023-05-08T21:10:11.280Z,98348.61
2023-05-08T21:12:40.516Z,98352.59
2023-05-08T21:15:08.956Z,98353.97
2023-05-08T21:17:37.083Z,98353.09
2023-05-08T21:20:05.763Z,98356.55
2023-05-08T21:22:34.191Z,98353.77
2023-05-08T21:25:15.625Z,98353.76
2023-05-08T21:27:44.041Z,98355.46
2023-05-08T21:30:15.588Z,98357.86
2023-05-08T21:32:44.896Z,98362.70
2023-05-08T21:35:13.582Z,98360.58
2023-05-08T21:37:41.840Z,98361.77
2023-05-08T21:40:10.320Z,98363.64
2023-05-08T21:42:39.656Z,98360.67
2023-05-08T21:45:07.925Z,98361.73
2023-05-08T21:47:36.022Z,98362.41
2023-05-08T21:50:04.294Z,98365.20
2023-05-08T21:52:32.339Z,98362.45
2023-05-08T21:55:00.465Z,98363.31
2023-05-08T21:57:28.461Z,98363.64
2023-05-08T21:59:56.825Z,98361.37
2023-05-08T22:02:24.992Z,98363.96
2023-05-08T22:04:53.376Z,98363.92
2023-05-08T22:07:21.662Z,98367.52
2023-05-08T22:09:49.719Z,98374.42
2023-05-08T22:12:18.672Z,98376.36
2023-05-08T22:14:46.863Z,98374.86
2023-05-08T22:17:14.846Z,98375.48
2023-05-08T22:19:42.856Z,98375.23
2023-05-08T22:22:10.835Z,98373.79
2023-05-08T22:24:38.733Z,98373.23
2023-05-08T22:27:06.830Z,98371.47
2023-05-08T22:29:34.758Z,98367.50
2023-05-08T22:32:03.666Z,98368.42
2023-05-08T22:34:31.752Z,98368.34
2023-05-08T22:36:59.794Z,98364.73
2023-05-08T22:39:27.875Z,98363.93
2023-05-08T22:41:56.169Z,98366.27
2023-05-08T22:44:24.285Z,98370.36
2023-05-08T22:46:52.452Z,98372.18
2023-05-08T22:49:20.537Z,98371.55
2023-05-08T22:51:50.518Z,98367.45
2023-05-08T22:54:18.471Z,98367.83
2023-05-08T22:56:47.092Z,98367.51
2023-05-08T22:59:15.141Z,98371.33
2023-05-08T23:01:43.220Z,98370.45
2023-05-08T23:04:11.397Z,98369.05
2023-05-08T23:06:39.360Z,98368.02
2023-05-08T23:09:07.449Z,98366.80
2023-05-08T23:11:35.492Z,98362.13
2023-05-08T23:14:03.528Z,98358.69
2023-05-08T23:16:31.821Z,98356.98
2023-05-08T23:18:59.892Z,98354.94
2023-05-08T23:21:28.038Z,98356.04
2023-05-08T23:23:56.101Z,98353.98
2023-05-08T23:26:24.344Z,98357.83
2023-05-08T23:28:52.553Z,98357.34
2023-05-08T23:31:20.666Z,98356.66
2023-05-08T23:33:48.789Z,98354.41
2023-05-08T23:36:16.932Z,98352.86
2023-05-08T23:38:45.057Z,98352.52
2023-05-08T23:41:16.035Z,98348.50
2023-05-08T23:43:44.192Z,98348.83
2023-05-08T23:46:12.252Z,98350.73
2023-05-08T23:48:40.742Z,98352.11
2023-05-08T23:51:09.091Z,98352.62
2023-05-08T23:53:38.258Z,98354.70
2023-05-08T23:56:06.852Z,98354.70
2023-05-08T23:58:34.885Z,98347.59
